Terminal Aerodrome Forecast
Issued by NWS Omaha/Valley, NE

Home | Current Version | Previous Version | Text Only | Print | Product List | Glossary On
Versions: 1 2 3 4 5 6 7 8 9 10 11 12
000
FTUS43 KOAX 240520
TAFOFK
TAF
KOFK 240520Z 2406/2506 18014KT P6SM BKN200 WS020/19045KT
     FM241400 18018G26KT P6SM BKN150
     FM242100 23012KT P6SM SCT200
     FM242300 27010KT P6SM SCT200
     FM250100 32008KT P6SM SCT200=

USA.gov is the U.S. government's official web portal to all federal, state and local government web resources and services.